X  Schließen METAR Luftfahrt Wetterdaten     EDDL Düsseldorf Airport
Temperatur
9°C Temperatur
1°C Taupunkt
58% Feuchtigkeit



Wind
21 km/h
13 MPS
6 M/S
11 KTS



230°
SW
Aktuelle Wetterlage

Meistens vereinzelte Wolken Meistens vereinzelte Wolken
Luftdruck 1005.08 (hPa) - 29.68 (inHg)
Sichtweite 6 (Meile) - 9.7 (Km)
Flughafen
Flughafen Code EDDL

Position : Düsseldorf Airport
Entfernung: 10 (Km)

Metar:
EDDL 251320Z AUTO 23011KT 200V280 9999 SCT040 09/01 Q1005 NOSIG

Zeit: 25-04-2024 13:20 CEST